createdAt,value
2023-01-09T00:02:12.966Z,956.68
2023-01-09T00:17:15.392Z,956.8
2023-01-09T00:32:17.699Z,956.83
2023-01-09T00:47:19.911Z,956.99
2023-01-09T01:02:22.395Z,957.01
2023-01-09T01:17:25.122Z,957.09
2023-01-09T01:32:27.488Z,957.05
2023-01-09T01:47:29.905Z,957.1
2023-01-09T02:02:32.584Z,957.2
2023-01-09T02:17:34.991Z,957.37
2023-01-09T02:32:37.379Z,957.48
2023-01-09T02:47:39.736Z,957.57
2023-01-09T03:02:42.176Z,957.8
2023-01-09T03:17:44.642Z,957.93
2023-01-09T03:32:46.947Z,958.08
2023-01-09T03:47:49.723Z,958.15
2023-01-09T04:02:53.536Z,958.34
2023-01-09T04:17:55.869Z,958.47
2023-01-09T04:32:58.268Z,958.63
2023-01-09T04:48:00.930Z,958.74
2023-01-09T05:03:03.220Z,958.96
2023-01-09T05:18:05.525Z,959.2
2023-01-09T05:33:07.912Z,959.28
2023-01-09T05:48:10.328Z,959.45
2023-01-09T06:03:12.696Z,959.51
2023-01-09T06:18:15.346Z,959.66
2023-01-09T06:33:17.672Z,959.88
2023-01-09T06:48:20.047Z,960.06
2023-01-09T07:03:22.394Z,960.17
2023-01-09T07:18:24.815Z,960.18
2023-01-09T07:33:27.146Z,960.17
2023-01-09T07:48:29.720Z,960.21
2023-01-09T08:03:32.213Z,960.22
2023-01-09T08:18:34.506Z,960.34
2023-01-09T08:33:37.739Z,960.34
2023-01-09T08:48:41.025Z,960.42
2023-01-09T09:03:43.363Z,960.51
2023-01-09T09:18:45.631Z,960.57
2023-01-09T09:33:47.960Z,960.69
2023-01-09T09:48:50.262Z,960.75
2023-01-09T10:03:52.691Z,960.87
2023-01-09T10:18:55.088Z,960.89
2023-01-09T10:33:57.453Z,961.04
2023-01-09T10:48:59.735Z,960.93
2023-01-09T11:04:02.143Z,960.72
2023-01-09T11:19:04.557Z,960.71
2023-01-09T11:34:06.823Z,960.62
2023-01-09T11:49:09.167Z,960.44
2023-01-09T12:04:11.570Z,960.18
2023-01-09T12:19:15.298Z,960.05
2023-01-09T12:34:17.625Z,960.11
2023-01-09T12:49:19.890Z,960.04
2023-01-09T13:04:22.200Z,959.94
2023-01-09T13:19:24.558Z,960.11
2023-01-09T13:34:26.995Z,960.3
2023-01-09T13:49:29.321Z,960.14
2023-01-09T14:04:31.588Z,959.89
2023-01-09T14:19:33.950Z,959.39
2023-01-09T14:34:36.304Z,959.37
2023-01-09T14:49:38.610Z,959.19
2023-01-09T15:04:40.968Z,959.04
2023-01-09T15:19:43.359Z,959.05
2023-01-09T15:34:45.670Z,958.68
2023-01-09T15:49:47.969Z,958.24
2023-01-09T16:04:50.328Z,958.15
2023-01-09T16:19:52.834Z,957.8
2023-01-09T16:34:55.130Z,957.42
2023-01-09T16:49:57.477Z,957.13
2023-01-09T17:04:59.828Z,957.05
2023-01-09T17:20:02.132Z,956.4
2023-01-09T17:35:04.486Z,956.73
2023-01-09T17:50:06.869Z,956.17
2023-01-09T18:05:09.351Z,955.68
2023-01-09T18:20:11.679Z,955.78
2023-01-09T18:35:14.115Z,955.53
2023-01-09T18:50:16.709Z,955.01
2023-01-09T19:05:19.094Z,954.72
2023-01-09T19:20:21.340Z,954.7
2023-01-09T19:35:23.776Z,954.73
2023-01-09T19:50:26.264Z,954.56
2023-01-09T20:05:28.853Z,954.36
2023-01-09T20:20:31.183Z,953.96
2023-01-09T20:35:33.558Z,953.55
2023-01-09T20:50:35.982Z,953.22
2023-01-09T21:05:38.323Z,953.24
2023-01-09T21:20:40.712Z,953.06
2023-01-09T21:35:43.050Z,953.12
2023-01-09T21:50:45.420Z,953.17
2023-01-09T22:05:47.734Z,953.22
2023-01-09T22:20:49.980Z,953.53
2023-01-09T22:35:52.314Z,953.53
2023-01-09T22:50:54.705Z,953.49
2023-01-09T23:05:56.976Z,953.53
2023-01-09T23:20:59.453Z,953.51
2023-01-09T23:36:01.802Z,953.55
2023-01-09T23:51:04.097Z,953.48
